Heroic Leader — C6ZD2 — position and weather

sailwx.info

Track history (hours):
 
Tides and Currents Weather Stations Pressure Air Temp Water Temp Dewpoint Dewpoint Depression Visibility Wind Speed Wind Dir Waves Ship Positions

Heroic Leader

Last reported at 2014-Nov-18 08:22 UTC. Time now 2014-Dec-19 10:50 UTC.
Position N 35°13' E 139°46'.
Warning: this ship's position is 31 days out of date.

Length 200 m; draft 9.6 m.

Type: Cargo ship. MMSI: 311052700.

Date/timePositionNaut miles runAvg speedWind from/ knotsBaromVisibWave heightAir tempDewpointWater temp
2014-Nov-18 08:22N 35°13' E 139°46'1012.7
2014-Nov-18 07:34N 35°22' E 139°42'6 5.8
2014-Nov-18 06:32N 35°28' E 139°41'0 0.0
2014-Nov-18 05:32N 35°28' E 139°41'0 0.0
2014-Nov-18 04:29N 35°28' E 139°41'0 0.0
2014-Nov-18 03:32N 35°28' E 139°41'0 0.0
2014-Nov-18 02:32N 35°28' E 139°41'0 0.0
2014-Nov-18 01:32N 35°28' E 139°41'0 0.0
2014-Nov-18 00:32N 35°28' E 139°41'0 0.0
2014-Nov-17 23:29N 35°28' E 139°41'0 0.0
2014-Nov-17 22:29N 35°28' E 139°41'3 3.4
2014-Nov-17 21:34N 35°26' E 139°44'9 8.9
2014-Nov-17 20:33N 35°17' E 139°45'1111.0
2014-Nov-17 19:32N 35°06' E 139°45'  
2014-Nov-13 03:33N 34°15' E 132°21'9 9.0
2014-Nov-13 02:33N 34°21' E 132°29'0 0.1
2014-Nov-13 01:33N 34°21' E 132°29'0 0.0
2014-Nov-13 00:33N 34°21' E 132°29'0 0.0
2014-Nov-12 23:33N 34°21' E 132°29'0 0.0
2014-Nov-12 22:33N 34°21' E 132°29'2 1.7
2014-Nov-12 21:28N 34°19' E 132°29'0 0.0
2014-Nov-12 20:28N 34°19' E 132°29'0 0.1
2014-Nov-12 19:31N 34°19' E 132°29'0 0.1
2014-Nov-12 18:31N 34°19' E 132°29'0 0.0
2014-Nov-12 17:31N 34°19' E 132°29'0 0.0
2014-Nov-12 16:25N 34°19' E 132°29'0 0.0
2014-Nov-12 15:31N 34°19' E 132°29'0 0.0
2014-Nov-12 14:31N 34°19' E 132°29'0 0.1
2014-Nov-12 13:31N 34°19' E 132°29'0 0.1
2014-Nov-12 12:31N 34°19' E 132°29'4 4.3
2014-Nov-12 11:33N 34°19' E 132°24'1211.6
2014-Nov-12 10:34N 34°08' E 132°23'  
Track history (hours):
 
Tides and Currents Weather Stations Pressure Air Temp Water Temp Dewpoint Dewpoint Depression Visibility Wind Speed Wind Dir Waves Ship Positions

Heroic Leader

Last reported at 2014-Nov-18 08:22 UTC. Time now 2014-Dec-19 10:50 UTC.
Position N 35°13' E 139°46'.
Warning: this ship's position is 31 days out of date.

Length 200 m; draft 9.6 m.

Type: Cargo ship. MMSI: 311052700.

Date/timePositionNaut miles runAvg speedWind from/ knotsBaromVisibWave heightAir tempDewpointWater temp
2014-Nov-18 08:22N 35°13' E 139°46'1012.7
2014-Nov-18 07:34N 35°22' E 139°42'6 5.8
2014-Nov-18 06:32N 35°28' E 139°41'0 0.0
2014-Nov-18 05:32N 35°28' E 139°41'0 0.0
2014-Nov-18 04:29N 35°28' E 139°41'0 0.0
2014-Nov-18 03:32N 35°28' E 139°41'0 0.0
2014-Nov-18 02:32N 35°28' E 139°41'0 0.0
2014-Nov-18 01:32N 35°28' E 139°41'0 0.0
2014-Nov-18 00:32N 35°28' E 139°41'0 0.0
2014-Nov-17 23:29N 35°28' E 139°41'0 0.0
2014-Nov-17 22:29N 35°28' E 139°41'3 3.4
2014-Nov-17 21:34N 35°26' E 139°44'9 8.9
2014-Nov-17 20:33N 35°17' E 139°45'1111.0
2014-Nov-17 19:32N 35°06' E 139°45'  
2014-Nov-13 03:33N 34°15' E 132°21'9 9.0
2014-Nov-13 02:33N 34°21' E 132°29'0 0.1
2014-Nov-13 01:33N 34°21' E 132°29'0 0.0
2014-Nov-13 00:33N 34°21' E 132°29'0 0.0
2014-Nov-12 23:33N 34°21' E 132°29'0 0.0
2014-Nov-12 22:33N 34°21' E 132°29'2 1.7
2014-Nov-12 21:28N 34°19' E 132°29'0 0.0
2014-Nov-12 20:28N 34°19' E 132°29'0 0.1
2014-Nov-12 19:31N 34°19' E 132°29'0 0.1
2014-Nov-12 18:31N 34°19' E 132°29'0 0.0
2014-Nov-12 17:31N 34°19' E 132°29'0 0.0
2014-Nov-12 16:25N 34°19' E 132°29'0 0.0
2014-Nov-12 15:31N 34°19' E 132°29'0 0.0
2014-Nov-12 14:31N 34°19' E 132°29'0 0.1
2014-Nov-12 13:31N 34°19' E 132°29'0 0.1
2014-Nov-12 12:31N 34°19' E 132°29'4 4.3
2014-Nov-12 11:33N 34°19' E 132°24'1211.6
2014-Nov-12 10:34N 34°08' E 132°23'  

Dump ship's entire track history